sensor_id;sensor_type;location;lat;lon;timestamp;temperature;humidity
12849;DHT22;6493;50.928;7.172;2023-04-24T00:01:31;8.70;53.90
12849;DHT22;6493;50.928;7.172;2023-04-24T00:06:36;8.70;54.00
12849;DHT22;6493;50.928;7.172;2023-04-24T00:11:41;8.70;53.90
12849;DHT22;6493;50.928;7.172;2023-04-24T00:16:45;8.60;53.80
12849;DHT22;6493;50.928;7.172;2023-04-24T00:21:49;8.60;54.00
12849;DHT22;6493;50.928;7.172;2023-04-24T00:26:52;8.60;54.00
12849;DHT22;6493;50.928;7.172;2023-04-24T00:31:57;8.60;54.00
12849;DHT22;6493;50.928;7.172;2023-04-24T00:37:00;8.60;54.70
12849;DHT22;6493;50.928;7.172;2023-04-24T00:42:04;8.60;54.10
12849;DHT22;6493;50.928;7.172;2023-04-24T00:47:09;8.60;54.10
12849;DHT22;6493;50.928;7.172;2023-04-24T00:52:13;8.60;54.10
12849;DHT22;6493;50.928;7.172;2023-04-24T00:57:19;8.60;54.70
12849;DHT22;6493;50.928;7.172;2023-04-24T01:02:25;8.60;54.30
12849;DHT22;6493;50.928;7.172;2023-04-24T01:07:29;8.60;54.30
12849;DHT22;6493;50.928;7.172;2023-04-24T01:12:32;8.60;54.30
12849;DHT22;6493;50.928;7.172;2023-04-24T01:17:37;8.60;54.30
12849;DHT22;6493;50.928;7.172;2023-04-24T01:22:42;8.60;54.40
12849;DHT22;6493;50.928;7.172;2023-04-24T01:27:46;8.60;54.30
12849;DHT22;6493;50.928;7.172;2023-04-24T01:32:49;8.60;54.40
12849;DHT22;6493;50.928;7.172;2023-04-24T01:37:54;8.50;54.40
12849;DHT22;6493;50.928;7.172;2023-04-24T01:42:57;8.50;54.50
12849;DHT22;6493;50.928;7.172;2023-04-24T01:48:01;8.40;54.40
12849;DHT22;6493;50.928;7.172;2023-04-24T01:53:06;8.40;54.20
12849;DHT22;6493;50.928;7.172;2023-04-24T01:58:10;8.30;54.10
12849;DHT22;6493;50.928;7.172;2023-04-24T02:03:13;8.30;54.00
12849;DHT22;6493;50.928;7.172;2023-04-24T02:08:18;8.20;53.90
12849;DHT22;6493;50.928;7.172;2023-04-24T02:13:23;8.20;53.90
12849;DHT22;6493;50.928;7.172;2023-04-24T02:18:27;8.20;53.60
12849;DHT22;6493;50.928;7.172;2023-04-24T02:23:33;8.10;53.50
12849;DHT22;6493;50.928;7.172;2023-04-24T02:28:36;8.10;53.40
12849;DHT22;6493;50.928;7.172;2023-04-24T02:33:39;8.00;53.30
12849;DHT22;6493;50.928;7.172;2023-04-24T02:38:43;7.90;53.20
12849;DHT22;6493;50.928;7.172;2023-04-24T02:43:47;7.90;53.70
12849;DHT22;6493;50.928;7.172;2023-04-24T02:48:50;7.80;53.20
12849;DHT22;6493;50.928;7.172;2023-04-24T02:53:55;7.70;53.70
12849;DHT22;6493;50.928;7.172;2023-04-24T02:58:58;7.60;53.60
12849;DHT22;6493;50.928;7.172;2023-04-24T03:04:02;7.60;53.10
12849;DHT22;6493;50.928;7.172;2023-04-24T03:09:07;7.50;53.10
12849;DHT22;6493;50.928;7.172;2023-04-24T03:14:10;7.40;53.10
12849;DHT22;6493;50.928;7.172;2023-04-24T03:19:13;7.40;53.20
12849;DHT22;6493;50.928;7.172;2023-04-24T03:24:47;7.30;53.10
12849;DHT22;6493;50.928;7.172;2023-04-24T03:29:53;7.30;53.30
12849;DHT22;6493;50.928;7.172;2023-04-24T03:35:02;7.20;53.20
12849;DHT22;6493;50.928;7.172;2023-04-24T03:40:08;7.20;53.10
12849;DHT22;6493;50.928;7.172;2023-04-24T03:45:13;7.10;53.00
12849;DHT22;6493;50.928;7.172;2023-04-24T03:50:21;7.00;53.10
12849;DHT22;6493;50.928;7.172;2023-04-24T03:55:26;6.90;52.90
12849;DHT22;6493;50.928;7.172;2023-04-24T04:00:29;6.90;53.10
12849;DHT22;6493;50.928;7.172;2023-04-24T04:06:07;6.80;53.00
12849;DHT22;6493;50.928;7.172;2023-04-24T04:11:14;6.80;53.10
12849;DHT22;6493;50.928;7.172;2023-04-24T04:16:19;6.70;53.00
12849;DHT22;6493;50.928;7.172;2023-04-24T04:21:25;6.70;53.10
12849;DHT22;6493;50.928;7.172;2023-04-24T04:26:39;6.70;53.10
12849;DHT22;6493;50.928;7.172;2023-04-24T04:31:45;6.70;53.20
12849;DHT22;6493;50.928;7.172;2023-04-24T04:36:49;6.60;53.20
12849;DHT22;6493;50.928;7.172;2023-04-24T04:42:03;6.60;53.20
12849;DHT22;6493;50.928;7.172;2023-04-24T04:47:14;6.60;53.20
12849;DHT22;6493;50.928;7.172;2023-04-24T04:52:18;6.60;53.20
12849;DHT22;6493;50.928;7.172;2023-04-24T04:57:28;6.60;53.20
12849;DHT22;6493;50.928;7.172;2023-04-24T05:02:32;6.60;53.30
12849;DHT22;6493;50.928;7.172;2023-04-24T05:07:36;6.60;53.40
12849;DHT22;6493;50.928;7.172;2023-04-24T05:12:41;6.50;53.40
12849;DHT22;6493;50.928;7.172;2023-04-24T05:17:47;6.50;53.40
12849;DHT22;6493;50.928;7.172;2023-04-24T05:22:50;6.50;53.50
12849;DHT22;6493;50.928;7.172;2023-04-24T05:27:59;6.40;53.50
12849;DHT22;6493;50.928;7.172;2023-04-24T05:33:02;6.40;53.50
12849;DHT22;6493;50.928;7.172;2023-04-24T05:38:08;6.40;53.50
12849;DHT22;6493;50.928;7.172;2023-04-24T05:43:13;6.40;53.50
12849;DHT22;6493;50.928;7.172;2023-04-24T05:48:16;6.40;53.70
12849;DHT22;6493;50.928;7.172;2023-04-24T05:53:19;6.40;53.80
12849;DHT22;6493;50.928;7.172;2023-04-24T05:58:24;6.40;53.90
12849;DHT22;6493;50.928;7.172;2023-04-24T06:03:28;6.40;54.00
12849;DHT22;6493;50.928;7.172;2023-04-24T06:08:32;6.30;54.10
12849;DHT22;6493;50.928;7.172;2023-04-24T06:13:37;6.30;54.10
12849;DHT22;6493;50.928;7.172;2023-04-24T06:19:03;6.30;54.40
12849;DHT22;6493;50.928;7.172;2023-04-24T06:24:06;6.30;54.30
12849;DHT22;6493;50.928;7.172;2023-04-24T06:29:11;6.30;54.60
12849;DHT22;6493;50.928;7.172;2023-04-24T06:34:14;6.20;54.50
12849;DHT22;6493;50.928;7.172;2023-04-24T06:39:17;6.20;55.10
12849;DHT22;6493;50.928;7.172;2023-04-24T06:44:21;6.20;54.60
12849;DHT22;6493;50.928;7.172;2023-04-24T06:49:25;6.10;54.80
12849;DHT22;6493;50.928;7.172;2023-04-24T06:54:29;6.10;54.80
12849;DHT22;6493;50.928;7.172;2023-04-24T06:59:33;6.10;54.70
12849;DHT22;6493;50.928;7.172;2023-04-24T07:04:37;6.00;55.00
12849;DHT22;6493;50.928;7.172;2023-04-24T07:09:40;6.00;55.80
12849;DHT22;6493;50.928;7.172;2023-04-24T07:14:46;5.90;55.30
12849;DHT22;6493;50.928;7.172;2023-04-24T07:19:49;5.90;55.40
12849;DHT22;6493;50.928;7.172;2023-04-24T07:24:52;5.80;55.30
12849;DHT22;6493;50.928;7.172;2023-04-24T07:29:57;5.80;55.60
12849;DHT22;6493;50.928;7.172;2023-04-24T07:35:00;5.80;56.00
12849;DHT22;6493;50.928;7.172;2023-04-24T07:40:04;5.80;55.80
12849;DHT22;6493;50.928;7.172;2023-04-24T07:45:09;5.70;55.80
12849;DHT22;6493;50.928;7.172;2023-04-24T07:50:12;5.70;55.80
12849;DHT22;6493;50.928;7.172;2023-04-24T07:55:15;5.70;56.60
12849;DHT22;6493;50.928;7.172;2023-04-24T08:00:20;5.70;56.60
12849;DHT22;6493;50.928;7.172;2023-04-24T08:05:23;5.60;56.50
12849;DHT22;6493;50.928;7.172;2023-04-24T08:10:29;5.60;56.40
12849;DHT22;6493;50.928;7.172;2023-04-24T08:15:34;5.50;56.40
12849;DHT22;6493;50.928;7.172;2023-04-24T08:20:37;5.40;56.30
12849;DHT22;6493;50.928;7.172;2023-04-24T08:25:40;5.30;56.30
12849;DHT22;6493;50.928;7.172;2023-04-24T08:30:45;5.30;56.30
12849;DHT22;6493;50.928;7.172;2023-04-24T08:35:48;5.20;56.40
12849;DHT22;6493;50.928;7.172;2023-04-24T08:40:52;5.10;56.60
12849;DHT22;6493;50.928;7.172;2023-04-24T08:45:58;5.10;56.40
12849;DHT22;6493;50.928;7.172;2023-04-24T08:51:02;5.00;56.40
12849;DHT22;6493;50.928;7.172;2023-04-24T08:56:08;4.90;56.60
12849;DHT22;6493;50.928;7.172;2023-04-24T09:01:13;4.80;57.50
12849;DHT22;6493;50.928;7.172;2023-04-24T09:06:17;4.70;56.80
12849;DHT22;6493;50.928;7.172;2023-04-24T09:11:22;4.60;56.80
12849;DHT22;6493;50.928;7.172;2023-04-24T09:16:29;4.60;56.80
12849;DHT22;6493;50.928;7.172;2023-04-24T09:21:35;4.50;57.00
12849;DHT22;6493;50.928;7.172;2023-04-24T09:26:38;4.50;57.30
12849;DHT22;6493;50.928;7.172;2023-04-24T09:31:43;4.50;57.20
12849;DHT22;6493;50.928;7.172;2023-04-24T09:36:47;4.40;57.90
12849;DHT22;6493;50.928;7.172;2023-04-24T09:41:51;4.50;57.40
12849;DHT22;6493;50.928;7.172;2023-04-24T09:46:58;4.50;57.50
12849;DHT22;6493;50.928;7.172;2023-04-24T09:52:05;4.50;57.60
12849;DHT22;6493;50.928;7.172;2023-04-24T09:57:09;4.60;57.90
12849;DHT22;6493;50.928;7.172;2023-04-24T10:02:19;4.60;57.80
12849;DHT22;6493;50.928;7.172;2023-04-24T10:07:25;4.70;57.90
12849;DHT22;6493;50.928;7.172;2023-04-24T10:12:29;4.80;58.10
12849;DHT22;6493;50.928;7.172;2023-04-24T10:17:35;4.90;58.00
12849;DHT22;6493;50.928;7.172;2023-04-24T10:22:39;5.00;58.40
12849;DHT22;6493;50.928;7.172;2023-04-24T10:27:43;5.10;58.30
12849;DHT22;6493;50.928;7.172;2023-04-24T10:32:49;5.20;58.30
12849;DHT22;6493;50.928;7.172;2023-04-24T10:37:57;5.30;58.30
12849;DHT22;6493;50.928;7.172;2023-04-24T10:43:03;5.50;58.80
12849;DHT22;6493;50.928;7.172;2023-04-24T10:48:09;5.60;58.30
12849;DHT22;6493;50.928;7.172;2023-04-24T10:53:17;5.70;58.90
12849;DHT22;6493;50.928;7.172;2023-04-24T10:58:22;5.90;59.00
12849;DHT22;6493;50.928;7.172;2023-04-24T11:03:28;6.10;59.20
12849;DHT22;6493;50.928;7.172;2023-04-24T11:08:37;6.20;58.80
12849;DHT22;6493;50.928;7.172;2023-04-24T11:14:03;6.20;58.60
12849;DHT22;6493;50.928;7.172;2023-04-24T11:19:17;6.20;58.60
12849;DHT22;6493;50.928;7.172;2023-04-24T11:24:28;6.20;58.20
12849;DHT22;6493;50.928;7.172;2023-04-24T11:29:44;6.20;58.20
12849;DHT22;6493;50.928;7.172;2023-04-24T11:34:50;6.20;58.50
12849;DHT22;6493;50.928;7.172;2023-04-24T11:39:54;6.20;58.20
12849;DHT22;6493;50.928;7.172;2023-04-24T11:44:58;6.20;58.30
12849;DHT22;6493;50.928;7.172;2023-04-24T11:50:08;6.10;58.00
12849;DHT22;6493;50.928;7.172;2023-04-24T11:55:23;6.00;58.10
12849;DHT22;6493;50.928;7.172;2023-04-24T12:00:30;6.00;58.40
12849;DHT22;6493;50.928;7.172;2023-04-24T12:05:35;6.00;58.30
12849;DHT22;6493;50.928;7.172;2023-04-24T12:10:38;6.00;58.50
12849;DHT22;6493;50.928;7.172;2023-04-24T12:15:42;6.20;59.40
12849;DHT22;6493;50.928;7.172;2023-04-24T12:20:46;6.40;59.50
12849;DHT22;6493;50.928;7.172;2023-04-24T12:25:54;6.70;59.30
12849;DHT22;6493;50.928;7.172;2023-04-24T12:30:57;6.80;59.30
12849;DHT22;6493;50.928;7.172;2023-04-24T12:36:03;7.00;59.50
12849;DHT22;6493;50.928;7.172;2023-04-24T12:41:08;7.10;59.40
12849;DHT22;6493;50.928;7.172;2023-04-24T12:46:12;7.20;59.20
12849;DHT22;6493;50.928;7.172;2023-04-24T12:51:20;7.30;59.10
12849;DHT22;6493;50.928;7.172;2023-04-24T12:56:23;7.40;59.30
12849;DHT22;6493;50.928;7.172;2023-04-24T13:01:26;7.40;59.00
12849;DHT22;6493;50.928;7.172;2023-04-24T13:06:31;7.40;59.40
12849;DHT22;6493;50.928;7.172;2023-04-24T13:11:34;7.60;59.60
12849;DHT22;6493;50.928;7.172;2023-04-24T13:16:37;7.70;59.30
12849;DHT22;6493;50.928;7.172;2023-04-24T13:21:43;7.70;59.60
12849;DHT22;6493;50.928;7.172;2023-04-24T13:26:46;7.70;59.30
12849;DHT22;6493;50.928;7.172;2023-04-24T13:31:50;7.80;59.30
12849;DHT22;6493;50.928;7.172;2023-04-24T13:36:56;7.90;59.30
12849;DHT22;6493;50.928;7.172;2023-04-24T13:42:00;7.90;59.10
12849;DHT22;6493;50.928;7.172;2023-04-24T13:47:05;7.90;58.80
12849;DHT22;6493;50.928;7.172;2023-04-24T13:52:10;7.90;58.60
12849;DHT22;6493;50.928;7.172;2023-04-24T13:57:14;7.90;58.80
12849;DHT22;6493;50.928;7.172;2023-04-24T14:02:17;8.00;59.50
12849;DHT22;6493;50.928;7.172;2023-04-24T14:07:22;8.20;59.30
12849;DHT22;6493;50.928;7.172;2023-04-24T14:12:26;8.40;58.90
12849;DHT22;6493;50.928;7.172;2023-04-24T14:17:29;8.40;58.50
12849;DHT22;6493;50.928;7.172;2023-04-24T14:22:34;8.50;58.30
12849;DHT22;6493;50.928;7.172;2023-04-24T14:27:37;8.50;58.40
12849;DHT22;6493;50.928;7.172;2023-04-24T14:32:41;8.60;58.90
12849;DHT22;6493;50.928;7.172;2023-04-24T14:37:46;8.60;58.20
12849;DHT22;6493;50.928;7.172;2023-04-24T14:42:50;8.60;58.10
12849;DHT22;6493;50.928;7.172;2023-04-24T14:47:54;8.70;58.80
12849;DHT22;6493;50.928;7.172;2023-04-24T14:53:00;8.80;58.00
12849;DHT22;6493;50.928;7.172;2023-04-24T14:58:04;8.90;58.00
12849;DHT22;6493;50.928;7.172;2023-04-24T15:03:07;9.00;57.90
12849;DHT22;6493;50.928;7.172;2023-04-24T15:08:12;9.10;57.50
12849;DHT22;6493;50.928;7.172;2023-04-24T15:13:15;9.20;56.80
12849;DHT22;6493;50.928;7.172;2023-04-24T15:18:18;9.20;56.90
12849;DHT22;6493;50.928;7.172;2023-04-24T15:23:23;9.20;55.70
12849;DHT22;6493;50.928;7.172;2023-04-24T15:28:26;9.30;56.00
12849;DHT22;6493;50.928;7.172;2023-04-24T15:33:29;9.30;56.70
12849;DHT22;6493;50.928;7.172;2023-04-24T15:38:33;9.30;56.50
12849;DHT22;6493;50.928;7.172;2023-04-24T15:43:37;9.40;56.30
12849;DHT22;6493;50.928;7.172;2023-04-24T15:48:42;9.30;56.10
12849;DHT22;6493;50.928;7.172;2023-04-24T15:53:48;9.20;56.00
12849;DHT22;6493;50.928;7.172;2023-04-24T15:58:51;9.20;55.80
12849;DHT22;6493;50.928;7.172;2023-04-24T16:03:54;9.20;55.70
12849;DHT22;6493;50.928;7.172;2023-04-24T16:08:59;9.10;55.80
12849;DHT22;6493;50.928;7.172;2023-04-24T16:14:05;9.00;55.50
12849;DHT22;6493;50.928;7.172;2023-04-24T16:19:10;9.00;55.50
12849;DHT22;6493;50.928;7.172;2023-04-24T16:24:15;8.90;55.50
12849;DHT22;6493;50.928;7.172;2023-04-24T16:29:20;8.90;55.50
12849;DHT22;6493;50.928;7.172;2023-04-24T16:34:23;8.80;55.40
12849;DHT22;6493;50.928;7.172;2023-04-24T16:39:27;8.80;55.40
12849;DHT22;6493;50.928;7.172;2023-04-24T16:44:30;8.70;55.40
12849;DHT22;6493;50.928;7.172;2023-04-24T16:49:34;8.70;55.00
12849;DHT22;6493;50.928;7.172;2023-04-24T16:54:38;8.70;55.10
12849;DHT22;6493;50.928;7.172;2023-04-24T16:59:41;8.60;55.10
12849;DHT22;6493;50.928;7.172;2023-04-24T17:04:44;8.60;55.90
12849;DHT22;6493;50.928;7.172;2023-04-24T17:09:50;8.60;55.20
12849;DHT22;6493;50.928;7.172;2023-04-24T17:14:53;8.60;55.10
12849;DHT22;6493;50.928;7.172;2023-04-24T17:19:56;8.60;55.00
12849;DHT22;6493;50.928;7.172;2023-04-24T17:25:06;8.50;54.90
12849;DHT22;6493;50.928;7.172;2023-04-24T17:30:10;8.50;54.80
12849;DHT22;6493;50.928;7.172;2023-04-24T17:35:13;8.40;54.60
12849;DHT22;6493;50.928;7.172;2023-04-24T17:40:18;8.40;54.60
12849;DHT22;6493;50.928;7.172;2023-04-24T17:45:21;8.40;54.70
12849;DHT22;6493;50.928;7.172;2023-04-24T17:50:24;8.30;54.60
12849;DHT22;6493;50.928;7.172;2023-04-24T17:55:29;8.30;54.70
12849;DHT22;6493;50.928;7.172;2023-04-24T18:00:33;8.30;54.60
12849;DHT22;6493;50.928;7.172;2023-04-24T18:05:37;8.20;54.50
12849;DHT22;6493;50.928;7.172;2023-04-24T18:10:42;8.10;54.50
12849;DHT22;6493;50.928;7.172;2023-04-24T18:15:45;8.10;54.50
12849;DHT22;6493;50.928;7.172;2023-04-24T18:20:49;8.10;54.30
12849;DHT22;6493;50.928;7.172;2023-04-24T18:25:53;8.00;54.30
12849;DHT22;6493;50.928;7.172;2023-04-24T18:30:57;7.90;54.20
12849;DHT22;6493;50.928;7.172;2023-04-24T18:36:00;7.90;54.30
12849;DHT22;6493;50.928;7.172;2023-04-24T18:41:05;7.80;54.20
12849;DHT22;6493;50.928;7.172;2023-04-24T18:46:09;7.70;54.20
12849;DHT22;6493;50.928;7.172;2023-04-24T18:51:12;7.70;54.80
12849;DHT22;6493;50.928;7.172;2023-04-24T18:56:16;7.70;54.20
12849;DHT22;6493;50.928;7.172;2023-04-24T19:01:20;7.60;54.10
12849;DHT22;6493;50.928;7.172;2023-04-24T19:06:24;7.50;54.00
12849;DHT22;6493;50.928;7.172;2023-04-24T19:11:28;7.40;53.90
12849;DHT22;6493;50.928;7.172;2023-04-24T19:16:32;7.30;54.40
12849;DHT22;6493;50.928;7.172;2023-04-24T19:21:35;7.20;53.90
12849;DHT22;6493;50.928;7.172;2023-04-24T19:26:40;7.10;53.90
12849;DHT22;6493;50.928;7.172;2023-04-24T19:31:43;7.00;53.90
12849;DHT22;6493;50.928;7.172;2023-04-24T19:36:46;6.90;53.80
12849;DHT22;6493;50.928;7.172;2023-04-24T19:41:50;6.80;53.80
12849;DHT22;6493;50.928;7.172;2023-04-24T19:46:54;6.70;53.80
12849;DHT22;6493;50.928;7.172;2023-04-24T19:51:57;6.60;53.80
12849;DHT22;6493;50.928;7.172;2023-04-24T19:57:02;6.60;53.90
12849;DHT22;6493;50.928;7.172;2023-04-24T20:02:05;6.50;53.90
12849;DHT22;6493;50.928;7.172;2023-04-24T20:07:08;6.40;54.00
12849;DHT22;6493;50.928;7.172;2023-04-24T20:12:12;6.40;54.10
12849;DHT22;6493;50.928;7.172;2023-04-24T20:17:16;6.30;54.00
12849;DHT22;6493;50.928;7.172;2023-04-24T20:22:19;6.30;54.10
12849;DHT22;6493;50.928;7.172;2023-04-24T20:27:24;6.30;54.10
12849;DHT22;6493;50.928;7.172;2023-04-24T20:32:27;6.30;54.20
12849;DHT22;6493;50.928;7.172;2023-04-24T20:37:30;6.20;54.10
12849;DHT22;6493;50.928;7.172;2023-04-24T20:42:35;6.20;54.10
12849;DHT22;6493;50.928;7.172;2023-04-24T20:47:39;6.20;54.20
12849;DHT22;6493;50.928;7.172;2023-04-24T20:52:42;6.20;54.20
12849;DHT22;6493;50.928;7.172;2023-04-24T20:57:46;6.20;54.20
12849;DHT22;6493;50.928;7.172;2023-04-24T21:02:49;6.10;54.10
12849;DHT22;6493;50.928;7.172;2023-04-24T21:07:53;6.10;54.10
12849;DHT22;6493;50.928;7.172;2023-04-24T21:12:58;6.00;54.10
12849;DHT22;6493;50.928;7.172;2023-04-24T21:18:02;6.00;54.10
12849;DHT22;6493;50.928;7.172;2023-04-24T21:23:05;5.90;54.00
12849;DHT22;6493;50.928;7.172;2023-04-24T21:28:10;5.80;53.90
12849;DHT22;6493;50.928;7.172;2023-04-24T21:33:13;5.70;54.00
12849;DHT22;6493;50.928;7.172;2023-04-24T21:38:16;5.60;54.00
12849;DHT22;6493;50.928;7.172;2023-04-24T21:43:21;5.60;54.10
12849;DHT22;6493;50.928;7.172;2023-04-24T21:48:42;5.50;54.10
12849;DHT22;6493;50.928;7.172;2023-04-24T21:53:45;5.40;54.00
12849;DHT22;6493;50.928;7.172;2023-04-24T21:58:50;5.40;54.00
12849;DHT22;6493;50.928;7.172;2023-04-24T22:03:53;5.30;54.00
12849;DHT22;6493;50.928;7.172;2023-04-24T22:08:57;5.20;54.50
12849;DHT22;6493;50.928;7.172;2023-04-24T22:14:02;5.10;54.00
12849;DHT22;6493;50.928;7.172;2023-04-24T22:19:05;5.00;54.50
12849;DHT22;6493;50.928;7.172;2023-04-24T22:24:08;4.90;54.00
12849;DHT22;6493;50.928;7.172;2023-04-24T22:29:13;4.90;54.00
12849;DHT22;6493;50.928;7.172;2023-04-24T22:34:16;4.80;54.10
12849;DHT22;6493;50.928;7.172;2023-04-24T22:39:20;4.70;54.00
12849;DHT22;6493;50.928;7.172;2023-04-24T22:44:24;4.70;54.10
12849;DHT22;6493;50.928;7.172;2023-04-24T22:49:28;4.60;54.20
12849;DHT22;6493;50.928;7.172;2023-04-24T22:54:31;4.60;54.20
12849;DHT22;6493;50.928;7.172;2023-04-24T22:59:37;4.60;54.30
12849;DHT22;6493;50.928;7.172;2023-04-24T23:04:40;4.60;54.30
12849;DHT22;6493;50.928;7.172;2023-04-24T23:09:43;4.60;54.40
12849;DHT22;6493;50.928;7.172;2023-04-24T23:14:47;4.60;54.40
12849;DHT22;6493;50.928;7.172;2023-04-24T23:19:51;4.60;54.50
12849;DHT22;6493;50.928;7.172;2023-04-24T23:24:54;4.60;54.40
12849;DHT22;6493;50.928;7.172;2023-04-24T23:29:58;4.60;54.30
12849;DHT22;6493;50.928;7.172;2023-04-24T23:35:01;4.60;54.40
12849;DHT22;6493;50.928;7.172;2023-04-24T23:40:06;4.50;54.40
12849;DHT22;6493;50.928;7.172;2023-04-24T23:45:12;4.50;54.30
12849;DHT22;6493;50.928;7.172;2023-04-24T23:50:15;4.50;54.40
12849;DHT22;6493;50.928;7.172;2023-04-24T23:55:18;4.40;54.30
